createdAt,value
2023-04-29T00:00:49.726Z,10.10
2023-04-29T00:15:49.541Z,10.90
2023-04-29T00:30:49.401Z,10.70
2023-04-29T00:45:49.265Z,10.10
2023-04-29T01:00:49.055Z,9.60
2023-04-29T01:15:48.974Z,11.70
2023-04-29T01:30:48.824Z,9.20
2023-04-29T01:45:48.628Z,10.20
2023-04-29T02:00:48.454Z,11.60
2023-04-29T02:15:48.474Z,14.90
2023-04-29T02:30:48.536Z,13.80
2023-04-29T02:45:47.979Z,17.00
2023-04-29T03:00:47.803Z,16.70
2023-04-29T03:15:47.692Z,19.90
2023-04-29T03:30:47.455Z,19.30
2023-04-29T03:45:47.325Z,18.80
2023-04-29T04:00:47.139Z,26.30
2023-04-29T04:15:46.970Z,29.70
2023-04-29T04:30:46.789Z,27.70
2023-04-29T04:45:46.665Z,31.80
2023-04-29T05:00:46.636Z,35.80
2023-04-29T05:15:46.312Z,33.30
2023-04-29T05:30:46.187Z,41.10
2023-04-29T05:45:46.043Z,40.40
2023-04-29T06:00:45.812Z,47.10
2023-04-29T06:15:45.800Z,51.40
2023-04-29T06:30:46.624Z,62.30
2023-04-29T06:45:45.733Z,65.20
2023-04-29T07:00:45.210Z,65.10
2023-04-29T07:15:45.019Z,54.90
2023-04-29T07:30:44.985Z,47.70
2023-04-29T07:45:44.764Z,32.80
2023-04-29T08:00:44.568Z,33.50
2023-04-29T08:15:44.422Z,29.30
2023-04-29T08:30:44.248Z,24.20
2023-04-29T08:45:44.141Z,19.50
2023-04-29T09:00:44.024Z,21.50
2023-04-29T09:15:43.831Z,19.80
2023-04-29T09:30:43.612Z,22.60
2023-04-29T09:45:43.524Z,31.10
2023-04-29T10:00:43.305Z,40.50
2023-04-29T10:15:43.318Z,50.50
2023-04-29T10:30:42.962Z,53.20
2023-04-29T10:45:42.833Z,62.70
2023-04-29T11:00:42.778Z,60.50
2023-04-29T11:15:42.501Z,46.70
2023-04-29T11:30:42.452Z,42.70
2023-04-29T11:45:42.363Z,34.30
2023-04-29T12:00:42.107Z,28.90
2023-04-29T12:15:41.892Z,25.70
2023-04-29T12:30:41.653Z,21.30
2023-04-29T12:45:41.907Z,19.80
2023-04-29T13:00:42.624Z,18.10
2023-04-29T13:15:41.395Z,16.60
2023-04-29T13:30:41.279Z,13.50
2023-04-29T13:45:43.860Z,11.10
2023-04-29T14:15:40.564Z,10.00
2023-04-29T14:30:40.557Z,13.70
2023-04-29T14:45:40.190Z,11.80
2023-04-29T15:00:40.087Z,11.90
2023-04-29T15:15:39.862Z,12.10
2023-04-29T15:30:39.695Z,9.90
2023-04-29T15:45:39.540Z,9.20
2023-04-29T16:00:39.828Z,11.10
2023-04-29T16:15:39.249Z,9.80
2023-04-29T16:30:39.119Z,9.20
2023-04-29T16:45:39.064Z,10.20
2023-04-29T17:00:38.887Z,9.60
2023-04-29T17:15:38.646Z,10.00
2023-04-29T17:30:38.399Z,14.60
2023-04-29T17:45:39.279Z,8.90
2023-04-29T18:00:38.216Z,7.10
2023-04-29T18:15:37.948Z,5.80
2023-04-29T18:30:37.738Z,7.50
2023-04-29T18:45:37.559Z,7.10
2023-04-29T19:00:37.505Z,6.00
2023-04-29T19:15:37.773Z,5.70
2023-04-29T19:30:37.107Z,7.70
2023-04-29T19:45:36.922Z,7.10
2023-04-29T20:00:36.819Z,7.10
2023-04-29T20:15:37.256Z,15.10
2023-04-29T20:30:36.440Z,9.70
2023-04-29T20:45:36.459Z,8.00
2023-04-29T21:00:36.150Z,7.20
2023-04-29T21:15:36.067Z,6.90
2023-04-29T21:30:35.788Z,9.30
2023-04-29T21:45:35.683Z,8.80
2023-04-29T22:00:35.541Z,8.60
2023-04-29T22:15:35.538Z,10.60
2023-04-29T22:30:35.252Z,9.80
2023-04-29T22:45:35.616Z,7.30
2023-04-29T23:00:34.829Z,6.90
2023-04-29T23:15:34.772Z,6.50
2023-04-29T23:30:34.524Z,7.10
2023-04-29T23:45:34.343Z,6.90
